createdAt,value
2019-05-12T00:00:28.770Z,99.90
2019-05-12T00:02:59.122Z,99.90
2019-05-12T00:05:27.976Z,99.70
2019-05-12T00:07:55.889Z,99.90
2019-05-12T00:10:23.614Z,99.90
2019-05-12T00:12:51.634Z,99.90
2019-05-12T00:15:20.101Z,99.50
2019-05-12T00:17:49.351Z,99.70
2019-05-12T00:20:18.291Z,99.90
2019-05-12T00:22:48.643Z,99.90
2019-05-12T00:25:18.111Z,99.90
2019-05-12T00:27:48.278Z,99.90
2019-05-12T00:30:18.488Z,99.90
2019-05-12T00:32:47.828Z,99.90
2019-05-12T00:35:18.142Z,99.90
2019-05-12T00:37:45.055Z,99.90
2019-05-12T00:40:12.802Z,99.90
2019-05-12T00:42:40.447Z,99.90
2019-05-12T00:45:08.322Z,99.10
2019-05-12T00:47:38.632Z,98.90
2019-05-12T00:50:07.776Z,99.20
2019-05-12T00:52:35.012Z,99.30
2019-05-12T00:55:02.733Z,99.10
2019-05-12T00:57:30.487Z,99.20
2019-05-12T00:59:58.294Z,99.50
2019-05-12T01:02:25.978Z,98.80
2019-05-12T01:07:21.704Z,98.80
2019-05-12T01:09:49.369Z,99.10
2019-05-12T01:12:18.123Z,98.90
2019-05-12T01:14:47.796Z,99.20
2019-05-12T01:17:17.284Z,99.40
2019-05-12T01:19:44.863Z,99.10
2019-05-12T01:22:12.748Z,98.90
2019-05-12T01:24:40.473Z,98.70
2019-05-12T01:27:08.619Z,98.40
2019-05-12T01:29:38.530Z,98.70
2019-05-12T01:32:13.821Z,98.60
2019-05-12T01:34:41.738Z,98.90
2019-05-12T01:37:24.368Z,98.20
2019-05-12T01:39:52.702Z,98.50
2019-05-12T01:42:20.410Z,98.50
2019-05-12T01:44:48.254Z,98.60
2019-05-12T01:47:18.574Z,98.10
2019-05-12T01:49:45.731Z,98.60
2019-05-12T01:52:13.819Z,98.20
2019-05-12T01:54:41.574Z,98.40
2019-05-12T01:57:09.669Z,98.70
2019-05-12T01:59:38.127Z,98.90
2019-05-12T02:02:08.592Z,98.90
2019-05-12T02:05:02.614Z,98.80
2019-05-12T02:07:32.002Z,98.90
2019-05-12T02:10:00.099Z,98.10
2019-05-12T02:12:28.819Z,98.00
2019-05-12T02:14:58.397Z,98.20
2019-05-12T02:17:28.195Z,98.40
2019-05-12T02:19:55.403Z,98.70
2019-05-12T02:22:23.454Z,97.50
2019-05-12T02:24:51.094Z,97.90
2019-05-12T02:27:19.051Z,98.30
2019-05-12T02:29:48.044Z,98.20
2019-05-12T02:32:15.746Z,97.90
2019-05-12T02:34:45.736Z,98.10
2019-05-12T02:37:15.324Z,97.50
2019-05-12T02:39:44.895Z,97.80
2019-05-12T02:42:11.607Z,97.80
2019-05-12T02:44:39.345Z,97.00
2019-05-12T02:47:07.019Z,97.30
2019-05-12T02:49:35.023Z,97.60
2019-05-12T02:52:05.110Z,97.60
2019-05-12T02:54:50.865Z,97.40
2019-05-12T02:57:04.444Z,97.40
2019-05-12T02:59:34.715Z,97.00
2019-05-12T03:02:05.248Z,97.50
2019-05-12T03:04:35.137Z,97.30
2019-05-12T03:07:06.563Z,97.70
2019-05-12T03:09:35.179Z,97.90
2019-05-12T03:12:05.906Z,97.60
2019-05-12T03:14:39.432Z,96.80
2019-05-12T03:17:04.594Z,96.80
2019-05-12T03:19:34.436Z,97.20
2019-05-12T03:22:04.803Z,97.40
2019-05-12T03:24:34.075Z,96.90
2019-05-12T03:27:04.305Z,96.80
2019-05-12T03:29:34.144Z,97.10
2019-05-12T03:32:00.584Z,96.60
2019-05-12T03:34:29.836Z,96.20
2019-05-12T03:36:59.146Z,96.10
2019-05-12T03:39:27.080Z,96.50
2019-05-12T03:41:54.741Z,96.40
2019-05-12T03:44:25.232Z,96.70
2019-05-12T03:46:54.336Z,95.90
2019-05-12T03:49:24.240Z,96.10
2019-05-12T03:51:54.217Z,96.40
2019-05-12T03:54:20.479Z,95.70
2019-05-12T03:56:48.140Z,95.90
2019-05-12T03:59:15.855Z,95.90
2019-05-12T04:01:45.002Z,95.70
2019-05-12T04:04:15.201Z,95.90
2019-05-12T04:06:45.316Z,96.20
2019-05-12T04:09:15.166Z,95.20
2019-05-12T04:11:44.342Z,95.20
2019-05-12T04:14:11.084Z,95.80
2019-05-12T04:16:39.064Z,95.30
2019-05-12T04:19:06.757Z,95.50
2019-05-12T04:21:35.302Z,95.70
2019-05-12T04:24:05.486Z,95.20
2019-05-12T04:26:36.328Z,95.40
2019-05-12T04:29:04.813Z,95.20
2019-05-12T04:31:31.551Z,95.00
2019-05-12T04:33:59.207Z,95.30
2019-05-12T04:36:27.262Z,95.30
2019-05-12T04:38:55.908Z,94.80
2019-05-12T04:41:26.076Z,94.90
2019-05-12T04:43:55.066Z,95.20
2019-05-12T04:46:25.203Z,96.00
2019-05-12T04:48:54.600Z,96.00
2019-05-12T04:51:21.683Z,95.80
2019-05-12T04:53:49.621Z,95.60
2019-05-12T04:56:20.565Z,95.50
2019-05-12T04:58:46.707Z,95.90
2019-05-12T05:01:15.483Z,96.10
2019-05-12T05:03:44.400Z,96.60
2019-05-12T05:06:14.793Z,96.30
2019-05-12T05:08:44.318Z,96.10
2019-05-12T05:11:14.532Z,96.10
2019-05-12T05:13:44.185Z,96.30
2019-05-12T05:16:14.145Z,95.90
2019-05-12T05:18:40.966Z,95.80
2019-05-12T05:21:08.747Z,95.90
2019-05-12T05:23:36.390Z,96.10
2019-05-12T05:26:04.063Z,95.90
2019-05-12T05:28:33.863Z,95.40
2019-05-12T05:31:03.449Z,96.10
2019-05-12T05:33:33.873Z,96.00
2019-05-12T05:36:03.350Z,95.60
2019-05-12T05:38:30.739Z,95.80
2019-05-12T05:40:59.742Z,95.50
2019-05-12T05:43:27.838Z,95.70
2019-05-12T05:46:02.443Z,95.70
2019-05-12T05:48:24.954Z,95.50
2019-05-12T05:50:54.157Z,95.60
2019-05-12T05:53:24.172Z,96.10
2019-05-12T05:55:56.271Z,96.00
2019-05-12T05:58:26.187Z,96.00
2019-05-12T06:00:54.692Z,95.40
2019-05-12T06:03:27.233Z,95.20
2019-05-12T06:05:53.413Z,94.80
2019-05-12T06:08:23.687Z,95.50
2019-05-12T06:10:51.064Z,94.80
2019-05-12T06:13:21.097Z,95.20
2019-05-12T06:15:48.335Z,94.70
2019-05-12T06:18:16.373Z,95.50
2019-05-12T06:20:44.327Z,94.90
2019-05-12T06:23:14.526Z,95.10
2019-05-12T06:25:47.347Z,95.40
2019-05-12T06:28:10.752Z,95.30
2019-05-12T06:30:44.126Z,94.60
2019-05-12T06:33:07.899Z,94.90
2019-05-12T06:35:42.138Z,94.70
2019-05-12T06:38:05.364Z,94.40
2019-05-12T06:40:40.416Z,94.60
2019-05-12T06:43:04.396Z,94.50
2019-05-12T06:45:34.093Z,94.20
2019-05-12T06:48:03.391Z,94.20
2019-05-12T06:50:36.920Z,94.40
2019-05-12T06:53:01.317Z,94.30
2019-05-12T06:55:34.354Z,94.10
2019-05-12T07:00:30.641Z,93.90
2019-05-12T07:02:55.567Z,93.80
2019-05-12T07:05:23.368Z,93.40
2019-05-12T07:07:53.302Z,93.60
2019-05-12T07:10:38.454Z,93.10
2019-05-12T07:12:58.962Z,93.40
2019-05-12T07:15:19.753Z,93.60
2019-05-12T07:17:50.099Z,93.60
2019-05-12T07:20:17.951Z,92.80
2019-05-12T07:22:48.601Z,92.90
2019-05-12T07:25:15.062Z,93.00
2019-05-12T07:27:45.629Z,92.90
2019-05-12T07:30:13.662Z,93.00
2019-05-12T07:35:11.179Z,92.40
2019-05-12T07:37:43.589Z,92.60
2019-05-12T07:40:10.308Z,92.50
2019-05-12T07:42:39.654Z,91.90
2019-05-12T07:45:11.498Z,92.20
2019-05-12T07:50:09.834Z,92.00
2019-05-12T07:52:35.191Z,91.30
2019-05-12T07:55:04.297Z,91.90
2019-05-12T07:57:36.227Z,91.90
2019-05-12T08:00:03.595Z,91.10
2019-05-12T08:02:31.841Z,90.80
2019-05-12T08:05:00.484Z,91.30
2019-05-12T08:07:29.871Z,90.90
2019-05-12T08:09:57.600Z,91.00
2019-05-12T08:12:25.532Z,90.40
2019-05-12T08:14:54.168Z,90.40
2019-05-12T08:17:24.457Z,90.50
2019-05-12T08:19:53.153Z,89.90
2019-05-12T08:22:25.120Z,90.10
2019-05-12T08:24:50.143Z,89.10
2019-05-12T08:27:17.786Z,89.60
2019-05-12T08:29:45.431Z,90.20
2019-05-12T08:32:16.051Z,90.00
2019-05-12T08:34:43.754Z,90.30
2019-05-12T08:37:13.807Z,89.80
2019-05-12T08:39:41.041Z,90.30
2019-05-12T08:44:40.625Z,89.00
2019-05-12T08:47:05.872Z,87.70
2019-05-12T08:49:49.170Z,88.60
2019-05-12T08:52:03.899Z,88.90
2019-05-12T08:54:33.600Z,87.40
2019-05-12T08:57:01.775Z,87.00
2019-05-12T08:59:30.520Z,86.80
2019-05-12T09:02:00.507Z,87.30
2019-05-12T09:04:27.907Z,87.10
2019-05-12T09:06:59.709Z,85.20
2019-05-12T09:09:25.076Z,85.50
2019-05-12T09:11:54.232Z,86.40
2019-05-12T09:14:23.905Z,85.00
2019-05-12T09:16:53.737Z,85.70
2019-05-12T09:19:24.940Z,82.90
2019-05-12T09:21:50.987Z,82.70
2019-05-12T09:24:21.600Z,82.60
2019-05-12T09:29:15.773Z,81.80
2019-05-12T09:31:44.041Z,82.30
2019-05-12T09:34:14.173Z,81.10
2019-05-12T09:36:41.316Z,78.10
2019-05-12T09:39:08.984Z,80.90
2019-05-12T09:41:42.771Z,79.90
2019-05-12T09:44:06.468Z,78.40
2019-05-12T09:49:04.106Z,79.10
2019-05-12T09:51:41.036Z,77.80
2019-05-12T09:54:05.079Z,79.20
2019-05-12T09:56:34.061Z,78.90
2019-05-12T09:59:02.862Z,76.20
2019-05-12T10:01:35.236Z,75.90
2019-05-12T10:04:00.554Z,76.90
2019-05-12T10:06:28.591Z,75.50
2019-05-12T10:08:56.298Z,76.80
2019-05-12T10:11:23.930Z,74.50
2019-05-12T10:13:51.590Z,74.30
2019-05-12T10:16:19.291Z,75.00
2019-05-12T10:18:51.227Z,75.40
2019-05-12T10:21:17.558Z,72.90
2019-05-12T10:23:45.527Z,73.90
2019-05-12T10:26:14.768Z,73.20
2019-05-12T10:28:50.884Z,73.20
2019-05-12T10:31:13.816Z,70.40
2019-05-12T10:33:43.285Z,71.50
2019-05-12T10:36:11.296Z,68.70
2019-05-12T10:38:39.306Z,69.20
2019-05-12T10:41:07.028Z,70.60
2019-05-12T10:43:34.691Z,69.40
2019-05-12T10:46:04.208Z,67.30
2019-05-12T10:48:33.863Z,67.80
2019-05-12T10:51:01.477Z,68.00
2019-05-12T10:53:29.227Z,65.80
2019-05-12T10:55:56.955Z,66.00
2019-05-12T10:58:24.994Z,67.00
2019-05-12T11:00:53.677Z,67.50
2019-05-12T11:03:24.390Z,68.70
2019-05-12T11:05:54.704Z,68.90
2019-05-12T11:08:20.719Z,69.50
2019-05-12T11:10:50.263Z,70.60
2019-05-12T11:13:18.205Z,69.00
2019-05-12T11:15:49.440Z,68.90
2019-05-12T11:18:20.455Z,69.30
2019-05-12T11:20:45.347Z,69.70
2019-05-12T11:23:13.749Z,70.50
2019-05-12T11:25:43.868Z,68.90
2019-05-12T11:28:13.866Z,67.70
2019-05-12T11:30:40.755Z,66.90
2019-05-12T11:33:08.478Z,67.80
2019-05-12T11:35:36.144Z,67.10
2019-05-12T11:40:34.644Z,67.10
2019-05-12T11:43:04.666Z,67.10
2019-05-12T11:45:33.608Z,68.70
2019-05-12T11:48:05.984Z,69.10
2019-05-12T11:50:31.484Z,67.30
2019-05-12T11:52:59.519Z,68.60
2019-05-12T11:55:31.355Z,69.30
2019-05-12T11:58:00.351Z,66.00
2019-05-12T12:00:28.026Z,66.00
2019-05-12T12:02:55.680Z,65.70
2019-05-12T12:05:23.628Z,65.00
2019-05-12T12:07:53.374Z,65.40
2019-05-12T12:10:23.409Z,66.70
2019-05-12T12:12:51.251Z,64.90
2019-05-12T12:15:20.389Z,62.40
2019-05-12T12:17:48.373Z,63.20
2019-05-12T12:20:22.265Z,63.10
2019-05-12T12:22:47.819Z,63.30
2019-05-12T12:25:17.848Z,63.10
2019-05-12T12:27:45.679Z,62.60
2019-05-12T12:30:19.302Z,64.30
2019-05-12T12:32:44.332Z,60.80
2019-05-12T12:35:14.949Z,62.80
2019-05-12T12:37:42.057Z,63.20
2019-05-12T12:40:09.977Z,63.00
2019-05-12T12:42:44.101Z,63.50
2019-05-12T12:45:18.191Z,64.10
2019-05-12T12:47:49.224Z,63.00
2019-05-12T12:50:20.235Z,65.50
2019-05-12T12:52:48.797Z,66.00
2019-05-12T12:55:16.297Z,62.60
2019-05-12T12:57:46.488Z,61.10
2019-05-12T13:00:28.490Z,61.50
2019-05-12T13:02:45.104Z,60.20
2019-05-12T13:05:13.661Z,59.20
2019-05-12T13:07:43.867Z,57.90
2019-05-12T13:10:10.957Z,58.40
2019-05-12T13:12:38.607Z,56.10
2019-05-12T13:15:07.173Z,56.50
2019-05-12T13:17:41.584Z,56.60
2019-05-12T13:20:06.567Z,57.40
2019-05-12T13:22:34.269Z,57.50
2019-05-12T13:25:06.516Z,58.40
2019-05-12T13:27:36.718Z,59.00
2019-05-12T13:30:05.295Z,58.70
2019-05-12T13:32:37.816Z,58.70
2019-05-12T13:35:04.050Z,59.00
2019-05-12T13:37:33.726Z,58.60
2019-05-12T13:40:00.810Z,58.90
2019-05-12T13:42:30.342Z,59.60
2019-05-12T13:44:58.229Z,60.00
2019-05-12T13:47:29.156Z,60.00
2019-05-12T13:52:26.373Z,60.20
2019-05-12T13:54:52.687Z,59.00
2019-05-12T13:57:20.737Z,59.60
2019-05-12T14:02:22.216Z,59.70
2019-05-12T14:04:48.523Z,59.30
2019-05-12T14:07:20.081Z,58.40
2019-05-12T14:09:46.623Z,58.60
2019-05-12T14:12:14.291Z,58.80
2019-05-12T14:14:43.607Z,58.10
2019-05-12T14:17:14.686Z,58.70
2019-05-12T14:19:43.755Z,58.40
2019-05-12T14:22:20.976Z,58.90
2019-05-12T14:24:46.048Z,59.20
2019-05-12T14:27:11.785Z,58.00
2019-05-12T14:29:39.499Z,57.10
2019-05-12T14:32:07.257Z,57.50
2019-05-12T14:34:34.971Z,56.80
2019-05-12T14:37:06.895Z,56.40
2019-05-12T14:39:34.357Z,56.90
2019-05-12T14:42:01.739Z,56.20
2019-05-12T14:46:57.274Z,55.90
2019-05-12T14:49:28.417Z,56.10
2019-05-12T14:51:54.430Z,56.80
2019-05-12T14:54:23.900Z,57.10
2019-05-12T14:56:57.762Z,57.40
2019-05-12T14:59:24.310Z,56.10
2019-05-12T15:01:58.973Z,55.40
2019-05-12T15:04:27.963Z,55.30
2019-05-12T15:06:53.238Z,55.90
2019-05-12T15:09:22.413Z,53.50
2019-05-12T15:11:50.323Z,53.00
2019-05-12T15:14:24.672Z,53.40
2019-05-12T15:16:49.250Z,53.40
2019-05-12T15:19:20.902Z,53.70
2019-05-12T15:21:46.275Z,54.60
2019-05-12T15:24:18.466Z,55.00
2019-05-12T15:26:44.009Z,53.90
2019-05-12T15:29:18.005Z,55.30
2019-05-12T15:31:52.764Z,55.00
2019-05-12T15:34:10.448Z,53.00
2019-05-12T15:36:43.626Z,53.00
2019-05-12T15:39:08.255Z,53.50
2019-05-12T15:41:35.907Z,53.10
2019-05-12T15:44:06.541Z,53.60
2019-05-12T15:46:41.038Z,52.30
2019-05-12T15:49:03.430Z,51.80
2019-05-12T15:51:35.079Z,52.20
2019-05-12T15:54:06.416Z,53.00
2019-05-12T15:56:30.256Z,52.80
2019-05-12T15:59:00.997Z,53.40
2019-05-12T16:01:27.463Z,54.30
2019-05-12T16:03:57.879Z,54.20
2019-05-12T16:06:26.595Z,54.50
2019-05-12T16:08:54.284Z,54.40
2019-05-12T16:11:23.845Z,55.10
2019-05-12T16:13:54.783Z,54.00
2019-05-12T16:16:20.820Z,54.10
2019-05-12T16:18:50.670Z,52.90
2019-05-12T16:21:18.319Z,54.10
2019-05-12T16:23:46.303Z,54.60
2019-05-12T16:26:15.375Z,54.40
2019-05-12T16:28:44.118Z,54.90
2019-05-12T16:31:14.267Z,55.40
2019-05-12T16:33:43.539Z,53.40
2019-05-12T16:36:12.127Z,53.70
2019-05-12T16:38:40.284Z,53.20
2019-05-12T16:41:07.988Z,53.10
2019-05-12T16:43:36.725Z,54.20
2019-05-12T16:46:04.559Z,53.50
2019-05-12T16:48:33.950Z,53.50
2019-05-12T16:51:03.274Z,54.10
2019-05-12T16:53:31.127Z,53.30
2019-05-12T16:55:59.086Z,53.60
2019-05-12T16:58:33.332Z,53.60
2019-05-12T17:00:56.159Z,54.10
2019-05-12T17:05:55.772Z,53.80
2019-05-12T17:08:23.893Z,53.80
2019-05-12T17:11:01.127Z,53.10
2019-05-12T17:13:20.198Z,53.70
2019-05-12T17:15:48.650Z,54.40
2019-05-12T17:18:17.520Z,55.50
2019-05-12T17:20:47.016Z,54.80
2019-05-12T17:23:14.593Z,53.90
2019-05-12T17:25:42.251Z,54.10
2019-05-12T17:28:09.899Z,54.60
2019-05-12T17:30:37.594Z,55.10
2019-05-12T17:33:05.518Z,55.60
2019-05-12T17:35:34.965Z,54.90
2019-05-12T17:38:04.262Z,55.20
2019-05-12T17:40:34.202Z,54.70
2019-05-12T17:43:06.704Z,54.80
2019-05-12T17:45:31.576Z,55.40
2019-05-12T17:48:02.781Z,55.10
2019-05-12T17:50:28.636Z,54.70
2019-05-12T17:53:00.476Z,55.30
2019-05-12T17:55:25.968Z,55.10
2019-05-12T17:57:56.351Z,55.00
2019-05-12T18:00:23.660Z,54.80
2019-05-12T18:02:54.840Z,55.80
2019-05-12T18:05:20.780Z,55.30
2019-05-12T18:10:17.552Z,54.70
2019-05-12T18:12:45.618Z,54.80
2019-05-12T18:15:14.978Z,55.20
2019-05-12T18:17:47.389Z,54.60
2019-05-12T18:20:14.732Z,54.80
2019-05-12T18:22:45.047Z,55.40
2019-05-12T18:25:14.346Z,55.00
2019-05-12T18:27:44.414Z,55.70
2019-05-12T18:30:11.043Z,56.30
2019-05-12T18:32:38.744Z,56.50
2019-05-12T18:35:06.720Z,56.30
2019-05-12T18:37:34.464Z,56.90
2019-05-12T18:40:04.077Z,56.80
2019-05-12T18:42:33.694Z,56.20
2019-05-12T18:45:11.363Z,56.70
2019-05-12T18:47:34.201Z,56.50
2019-05-12T18:50:04.341Z,56.80
2019-05-12T18:52:39.409Z,56.90
2019-05-12T18:55:01.047Z,57.00
2019-05-12T18:57:28.781Z,57.70
2019-05-12T19:00:03.450Z,57.70
2019-05-12T19:02:28.514Z,57.70
2019-05-12T19:04:55.369Z,58.20
2019-05-12T19:07:38.932Z,57.90
2019-05-12T19:09:52.567Z,58.60
2019-05-12T19:12:24.327Z,58.10
2019-05-12T19:14:52.551Z,58.60
2019-05-12T19:17:19.620Z,59.00
2019-05-12T19:19:52.016Z,58.40
2019-05-12T19:22:16.908Z,58.80
2019-05-12T19:24:44.831Z,59.20
2019-05-12T19:27:16.548Z,59.40
2019-05-12T19:29:48.296Z,60.50
2019-05-12T19:32:14.388Z,59.50
2019-05-12T19:34:43.371Z,59.90
2019-05-12T19:37:11.333Z,59.10
2019-05-12T19:39:39.403Z,59.60
2019-05-12T19:42:10.608Z,59.70
2019-05-12T19:44:36.465Z,59.60
2019-05-12T19:47:04.211Z,59.70
2019-05-12T19:49:45.877Z,60.20
2019-05-12T19:52:03.576Z,59.90
2019-05-12T19:54:33.815Z,59.60
2019-05-12T19:57:00.280Z,59.60
2019-05-12T19:59:29.203Z,59.60
2019-05-12T20:01:56.907Z,59.50
2019-05-12T20:04:33.493Z,59.30
2019-05-12T20:06:54.534Z,59.20
2019-05-12T20:09:24.302Z,59.60
2019-05-12T20:11:53.635Z,60.20
2019-05-12T20:14:24.005Z,60.00
2019-05-12T20:16:50.978Z,59.10
2019-05-12T20:19:19.866Z,58.90
2019-05-12T20:21:48.030Z,59.40
2019-05-12T20:24:15.699Z,59.40
2019-05-12T20:26:44.108Z,58.60
2019-05-12T20:29:13.829Z,59.10
2019-05-12T20:31:46.662Z,59.20
2019-05-12T20:34:11.215Z,59.90
2019-05-12T20:36:39.532Z,60.50
2019-05-12T20:39:09.987Z,60.50
2019-05-12T20:41:36.999Z,60.40
2019-05-12T20:44:09.899Z,61.00
2019-05-12T20:46:34.322Z,61.40
2019-05-12T20:49:07.568Z,61.50
2019-05-12T20:51:33.934Z,62.10
2019-05-12T20:54:05.544Z,62.20
2019-05-12T20:56:30.440Z,61.90
2019-05-12T20:58:58.099Z,61.70
2019-05-12T21:01:30.080Z,62.00
2019-05-12T21:03:55.425Z,62.60
2019-05-12T21:06:23.661Z,62.10
2019-05-12T21:08:53.453Z,62.00
2019-05-12T21:11:21.120Z,61.30
2019-05-12T21:13:48.879Z,61.60
2019-05-12T21:16:20.426Z,61.90
2019-05-12T21:18:55.760Z,62.50
2019-05-12T21:21:17.674Z,61.90
2019-05-12T21:23:53.489Z,62.00
2019-05-12T21:26:14.857Z,62.90
2019-05-12T21:28:47.921Z,62.40
2019-05-12T21:31:14.151Z,61.20
2019-05-12T21:33:41.960Z,60.00
2019-05-12T21:36:15.462Z,60.60
2019-05-12T21:38:39.300Z,60.60
2019-05-12T21:41:09.855Z,59.00
2019-05-12T21:43:36.601Z,59.50
2019-05-12T21:46:07.917Z,59.20
2019-05-12T21:48:34.030Z,58.60
2019-05-12T21:51:04.207Z,58.90
2019-05-12T21:53:31.504Z,58.70
2019-05-12T21:56:03.798Z,59.00
2019-05-12T21:58:28.705Z,58.90
2019-05-12T22:01:04.150Z,59.00
2019-05-12T22:03:27.568Z,58.50
2019-05-12T22:05:55.782Z,58.50
2019-05-12T22:08:25.523Z,57.70
2019-05-12T22:10:54.193Z,58.90
2019-05-12T22:13:22.107Z,58.70
2019-05-12T22:15:51.518Z,57.70
2019-05-12T22:18:19.692Z,57.80
2019-05-12T22:20:52.296Z,57.90
2019-05-12T22:23:16.799Z,57.90
2019-05-12T22:25:49.018Z,57.60
2019-05-12T22:28:13.828Z,58.40
2019-05-12T22:30:43.605Z,58.10
2019-05-12T22:33:11.592Z,58.30
2019-05-12T22:35:40.655Z,58.30
2019-05-12T22:38:15.272Z,58.20
2019-05-12T22:40:37.719Z,57.90
2019-05-12T22:43:07.208Z,58.30
2019-05-12T22:45:44.585Z,57.90
2019-05-12T22:48:05.873Z,57.50
2019-05-12T22:50:35.350Z,57.70
2019-05-12T22:53:04.405Z,57.50
2019-05-12T22:55:35.556Z,57.20
2019-05-12T22:58:01.928Z,57.00
2019-05-12T23:00:29.917Z,56.90
2019-05-12T23:03:00.533Z,57.20
2019-05-12T23:05:27.060Z,56.80
2019-05-12T23:07:54.973Z,57.30
2019-05-12T23:10:22.732Z,57.00
2019-05-12T23:12:55.560Z,57.60
2019-05-12T23:15:19.840Z,57.00
2019-05-12T23:17:49.390Z,57.00
2019-05-12T23:20:17.100Z,57.50
2019-05-12T23:22:45.017Z,57.10
2019-05-12T23:25:19.985Z,57.20
2019-05-12T23:27:44.197Z,57.70
2019-05-12T23:30:13.460Z,57.40
2019-05-12T23:32:42.897Z,58.30
2019-05-12T23:35:10.518Z,57.50
2019-05-12T23:37:40.219Z,57.50
2019-05-12T23:40:11.469Z,58.10
2019-05-12T23:42:37.327Z,58.10
2019-05-12T23:45:06.003Z,57.60
2019-05-12T23:47:34.331Z,57.80
2019-05-12T23:50:04.067Z,57.80
2019-05-12T23:52:31.612Z,57.80
2019-05-12T23:54:59.911Z,56.50
2019-05-12T23:57:27.559Z,57.00
2019-05-12T23:59:55.256Z,57.50
